createdAt,value
2019-05-13T00:00:44.580Z,79.25
2019-05-13T00:02:20.076Z,79.67
2019-05-13T00:03:55.242Z,80.24
2019-05-13T00:05:30.263Z,80.36
2019-05-13T00:07:08.486Z,80.12
2019-05-13T00:08:44.929Z,80.89
2019-05-13T00:10:25.375Z,80.16
2019-05-13T00:12:04.619Z,80.16
2019-05-13T00:13:40.088Z,80.33
2019-05-13T00:15:15.572Z,80.55
2019-05-13T00:16:50.602Z,81.45
2019-05-13T00:18:25.604Z,80.82
2019-05-13T00:20:00.452Z,80.82
2019-05-13T00:21:36.808Z,80.83
2019-05-13T00:23:14.053Z,81.52
2019-05-13T00:24:48.590Z,81.15
2019-05-13T00:26:24.428Z,81.61
2019-05-13T00:27:59.588Z,81.94
2019-05-13T00:29:34.424Z,81.50
2019-05-13T00:31:09.415Z,82.15
2019-05-13T00:32:44.851Z,81.86
2019-05-13T00:34:19.808Z,82.13
2019-05-13T00:35:54.734Z,81.90
2019-05-13T00:37:30.016Z,82.71
2019-05-13T00:39:07.026Z,82.92
2019-05-13T00:40:44.103Z,82.75
2019-05-13T00:42:18.562Z,82.25
2019-05-13T00:43:53.554Z,81.83
2019-05-13T00:45:28.397Z,82.02
2019-05-13T00:47:04.515Z,82.30
2019-05-13T00:48:39.592Z,83.02
2019-05-13T00:50:14.670Z,82.78
2019-05-13T00:51:49.496Z,82.43
2019-05-13T00:53:24.513Z,82.90
2019-05-13T00:54:59.339Z,83.28
2019-05-13T00:56:34.694Z,83.62
2019-05-13T00:58:13.715Z,83.06
2019-05-13T00:59:48.123Z,83.04
2019-05-13T01:01:24.317Z,82.92
2019-05-13T01:03:00.370Z,82.85
2019-05-13T01:04:35.232Z,82.95
2019-05-13T01:06:10.237Z,83.13
2019-05-13T01:07:45.179Z,83.02
2019-05-13T01:09:20.232Z,83.38
2019-05-13T01:10:55.076Z,83.66
2019-05-13T01:12:30.360Z,84.02
2019-05-13T01:14:05.538Z,83.55
2019-05-13T01:15:40.594Z,84.17
2019-05-13T01:17:15.404Z,83.67
2019-05-13T01:18:50.396Z,83.82
2019-05-13T01:20:25.213Z,83.93
2019-05-13T01:22:00.321Z,83.93
2019-05-13T01:23:35.155Z,84.33
2019-05-13T01:25:10.600Z,84.42
2019-05-13T01:26:45.457Z,84.68
2019-05-13T01:28:20.522Z,84.27
2019-05-13T01:29:55.368Z,84.60
2019-05-13T01:31:30.380Z,84.88
2019-05-13T01:33:05.206Z,84.80
2019-05-13T01:34:40.213Z,84.18
2019-05-13T01:36:15.055Z,84.32
2019-05-13T01:37:50.065Z,84.44
2019-05-13T01:39:25.096Z,85.17
2019-05-13T01:41:00.121Z,85.01
2019-05-13T01:42:35.999Z,84.80
2019-05-13T01:44:11.020Z,84.81
2019-05-13T01:45:45.856Z,84.65
2019-05-13T01:47:20.894Z,84.42
2019-05-13T01:48:55.775Z,84.72
2019-05-13T01:50:33.169Z,84.26
2019-05-13T01:52:07.741Z,85.23
2019-05-13T01:53:44.055Z,85.56
2019-05-13T01:55:19.271Z,85.54
2019-05-13T01:56:54.304Z,85.36
2019-05-13T01:58:29.147Z,85.86
2019-05-13T02:00:04.872Z,85.87
2019-05-13T02:01:40.712Z,86.04
2019-05-13T02:03:15.754Z,86.50
2019-05-13T02:04:53.273Z,86.66
2019-05-13T02:06:28.359Z,86.97
2019-05-13T02:08:04.470Z,86.61
2019-05-13T02:09:39.850Z,86.38
2019-05-13T02:11:14.736Z,86.29
2019-05-13T02:12:49.728Z,86.19
2019-05-13T02:14:24.584Z,86.63
2019-05-13T02:15:59.681Z,87.14
2019-05-13T02:17:34.499Z,86.29
2019-05-13T02:19:09.503Z,87.15
2019-05-13T02:20:45.479Z,86.90
2019-05-13T02:22:20.515Z,87.22
2019-05-13T02:23:55.332Z,86.72
2019-05-13T02:25:30.348Z,86.86
2019-05-13T02:27:05.197Z,86.99
2019-05-13T02:28:40.205Z,87.03
2019-05-13T02:30:16.394Z,86.91
2019-05-13T02:31:55.779Z,87.08
2019-05-13T02:33:28.212Z,87.07
2019-05-13T02:35:03.828Z,86.74
2019-05-13T02:36:38.637Z,87.37
2019-05-13T02:38:22.799Z,88.07
2019-05-13T02:39:52.921Z,87.59
2019-05-13T02:41:27.111Z,87.59
2019-05-13T02:43:02.967Z,87.45
2019-05-13T02:44:38.224Z,87.85
2019-05-13T02:46:13.230Z,87.62
2019-05-13T02:47:48.230Z,87.61
2019-05-13T02:49:23.395Z,87.08
2019-05-13T02:50:58.503Z,87.01
2019-05-13T02:52:33.662Z,87.78
2019-05-13T02:54:08.705Z,87.08
2019-05-13T02:55:43.950Z,87.65
2019-05-13T02:57:19.158Z,87.23
2019-05-13T02:58:54.108Z,87.24
2019-05-13T03:00:32.635Z,87.83
2019-05-13T03:02:05.758Z,88.61
2019-05-13T03:03:44.152Z,88.55
2019-05-13T03:05:17.564Z,87.65
2019-05-13T03:06:52.579Z,88.03
2019-05-13T03:08:45.014Z,88.26
2019-05-13T03:10:04.738Z,88.40
2019-05-13T03:11:42.292Z,88.29
2019-05-13T03:13:16.367Z,88.77
2019-05-13T03:14:53.288Z,88.45
2019-05-13T03:16:38.219Z,88.78
2019-05-13T03:18:13.436Z,88.78
2019-05-13T03:19:48.183Z,88.50
2019-05-13T03:21:23.606Z,88.10
2019-05-13T03:22:58.299Z,87.46
2019-05-13T03:24:33.554Z,87.66
2019-05-13T03:26:08.158Z,88.24
2019-05-13T03:27:43.361Z,87.97
2019-05-13T03:29:17.980Z,87.88
2019-05-13T03:30:56.327Z,87.64
2019-05-13T03:32:41.846Z,87.60
2019-05-13T03:34:07.652Z,87.41
2019-05-13T03:35:45.535Z,88.14
2019-05-13T03:37:25.343Z,88.41
2019-05-13T03:39:05.786Z,87.96
2019-05-13T03:40:34.767Z,87.93
2019-05-13T03:42:12.393Z,88.06
2019-05-13T03:43:47.627Z,87.43
2019-05-13T03:45:24.965Z,86.78
2019-05-13T03:47:03.423Z,87.17
2019-05-13T03:48:42.831Z,87.05
2019-05-13T03:50:17.128Z,86.99
2019-05-13T03:51:53.446Z,86.67
2019-05-13T03:53:28.764Z,86.72
2019-05-13T03:55:03.824Z,86.69
2019-05-13T03:56:42.422Z,86.61
2019-05-13T03:58:15.673Z,86.38
2019-05-13T03:59:52.548Z,86.12
2019-05-13T04:01:27.604Z,86.30
2019-05-13T04:03:03.508Z,86.24
2019-05-13T04:04:38.337Z,86.08
2019-05-13T04:06:14.227Z,85.41
2019-05-13T04:07:52.299Z,85.46
2019-05-13T04:09:31.451Z,85.51
2019-05-13T04:11:03.236Z,85.46
2019-05-13T04:12:38.632Z,85.16
2019-05-13T04:14:13.261Z,84.36
2019-05-13T04:15:48.542Z,84.73
2019-05-13T04:17:24.271Z,84.60
2019-05-13T04:19:02.630Z,84.17
2019-05-13T04:20:36.260Z,84.26
2019-05-13T04:22:12.944Z,83.47
2019-05-13T04:23:47.987Z,83.63
2019-05-13T04:25:23.771Z,83.33
2019-05-13T04:26:58.692Z,83.26
2019-05-13T04:28:33.893Z,82.55
2019-05-13T04:30:09.304Z,82.36
2019-05-13T04:31:44.575Z,81.79
2019-05-13T04:33:22.577Z,70.54
2019-05-13T04:34:58.086Z,64.16
2019-05-13T04:36:32.851Z,63.68
2019-05-13T04:38:13.048Z,56.74
2019-05-13T04:39:51.753Z,54.34
2019-05-13T04:41:23.787Z,54.12
2019-05-13T04:42:58.592Z,54.12
2019-05-13T04:44:33.886Z,49.78
2019-05-13T04:46:08.522Z,45.76
2019-05-13T04:47:43.724Z,47.43
2019-05-13T04:49:18.452Z,46.59
2019-05-13T04:50:54.034Z,42.97
2019-05-13T04:52:28.839Z,43.66
2019-05-13T04:54:04.110Z,44.08
2019-05-13T04:55:38.773Z,42.08
2019-05-13T04:57:14.065Z,42.61
2019-05-13T04:58:48.847Z,42.61
2019-05-13T05:01:04.694Z,41.43
2019-05-13T05:02:53.827Z,41.43
2019-05-13T05:04:53.874Z,36.86
2019-05-13T05:06:57.312Z,37.46
2019-05-13T05:09:07.579Z,35.76
2019-05-13T05:11:22.016Z,36.02
2019-05-13T05:13:12.922Z,41.78
2019-05-13T05:15:28.567Z,45.14
2019-05-13T05:17:42.991Z,47.14
2019-05-13T05:19:53.857Z,42.06
2019-05-13T05:21:34.347Z,51.49
2019-05-13T05:23:47.391Z,57.58
2019-05-13T05:26:03.724Z,57.58
2019-05-13T05:27:51.429Z,62.17
2019-05-13T05:30:07.649Z,62.17
2019-05-13T05:31:58.480Z,57.95
2019-05-13T05:34:14.222Z,57.95
2019-05-13T05:36:36.123Z,61.04
2019-05-13T05:38:25.270Z,59.99
2019-05-13T05:40:01.746Z,50.11
2019-05-13T05:41:36.590Z,40.01
2019-05-13T05:43:11.710Z,36.61
2019-05-13T05:44:46.798Z,31.78
2019-05-13T05:46:23.498Z,32.42
2019-05-13T05:47:58.929Z,33.84
2019-05-13T05:49:34.090Z,31.95
2019-05-13T05:51:09.009Z,28.88
2019-05-13T05:52:44.472Z,29.28
2019-05-13T05:54:21.885Z,29.59
2019-05-13T05:55:59.420Z,30.88
2019-05-13T05:57:34.720Z,27.81
2019-05-13T05:59:12.471Z,26.03
2019-05-13T06:00:51.932Z,25.91
2019-05-13T06:02:28.556Z,26.50
2019-05-13T06:04:03.553Z,24.97
2019-05-13T06:05:38.845Z,26.30
2019-05-13T06:07:14.033Z,27.08
2019-05-13T06:08:51.508Z,24.34
2019-05-13T06:10:25.718Z,23.23
2019-05-13T06:12:01.742Z,25.84
2019-05-13T06:13:37.506Z,26.12
2019-05-13T06:15:12.726Z,24.05
2019-05-13T06:16:47.589Z,23.88
2019-05-13T06:18:22.698Z,22.13
2019-05-13T06:19:57.627Z,28.66
2019-05-13T06:21:32.728Z,24.62
2019-05-13T06:23:07.655Z,22.08
2019-05-13T06:24:42.755Z,23.11
2019-05-13T06:26:18.019Z,24.98
2019-05-13T06:27:53.154Z,24.76
2019-05-13T06:29:27.988Z,24.32
2019-05-13T06:31:03.007Z,21.27
2019-05-13T06:32:37.909Z,20.34
2019-05-13T06:34:12.927Z,21.61
2019-05-13T06:35:47.762Z,23.16
2019-05-13T06:37:23.046Z,22.04
2019-05-13T06:38:57.875Z,22.25
2019-05-13T06:40:32.973Z,21.37
2019-05-13T06:42:07.870Z,20.82
2019-05-13T06:43:42.877Z,23.05
2019-05-13T06:45:17.875Z,20.35
2019-05-13T06:46:52.955Z,22.23
2019-05-13T06:48:27.833Z,21.74
2019-05-13T06:50:03.543Z,21.00
2019-05-13T06:51:38.445Z,22.26
2019-05-13T06:53:13.529Z,22.15
2019-05-13T06:54:48.368Z,20.73
2019-05-13T06:56:23.414Z,20.32
2019-05-13T06:57:58.276Z,20.54
2019-05-13T06:59:33.286Z,19.88
2019-05-13T07:01:08.274Z,19.44
2019-05-13T07:02:43.285Z,19.24
2019-05-13T07:04:18.236Z,19.11
2019-05-13T07:05:53.265Z,18.27
2019-05-13T07:07:28.119Z,19.75
2019-05-13T07:09:04.202Z,18.49
2019-05-13T07:10:41.340Z,19.74
2019-05-13T07:12:15.801Z,19.07
2019-05-13T07:13:51.610Z,19.35
2019-05-13T07:15:26.985Z,17.83
2019-05-13T07:17:02.354Z,20.53
2019-05-13T07:18:37.491Z,16.85
2019-05-13T07:20:12.403Z,20.03
2019-05-13T07:21:47.423Z,19.70
2019-05-13T07:23:22.571Z,20.60
2019-05-13T07:24:57.637Z,19.85
2019-05-13T07:26:33.239Z,20.26
2019-05-13T07:28:08.289Z,18.24
2019-05-13T07:29:43.205Z,18.47
2019-05-13T07:31:18.214Z,19.70
2019-05-13T07:32:53.052Z,17.94
2019-05-13T07:34:28.135Z,23.12
2019-05-13T07:36:03.732Z,18.89
2019-05-13T07:37:42.227Z,19.09
2019-05-13T07:39:17.635Z,19.09
2019-05-13T07:41:01.457Z,19.50
2019-05-13T07:42:36.324Z,19.53
2019-05-13T07:44:11.898Z,21.93
2019-05-13T07:45:47.238Z,20.97
2019-05-13T07:47:22.407Z,17.91
2019-05-13T07:48:57.756Z,17.40
2019-05-13T07:50:32.362Z,19.29
2019-05-13T07:52:07.665Z,19.28
2019-05-13T07:53:42.703Z,19.43
2019-05-13T07:55:19.129Z,20.11
2019-05-13T07:56:53.785Z,21.22
2019-05-13T07:58:28.981Z,20.04
2019-05-13T08:00:04.014Z,18.91
2019-05-13T08:01:41.682Z,19.04
2019-05-13T08:03:15.731Z,17.73
2019-05-13T08:04:53.135Z,20.66
2019-05-13T08:06:27.630Z,21.11
2019-05-13T08:08:02.818Z,21.05
2019-05-13T08:09:37.590Z,18.22
2019-05-13T08:11:13.018Z,19.40
2019-05-13T08:12:47.752Z,21.12
2019-05-13T08:14:22.952Z,22.71
2019-05-13T08:15:57.669Z,22.40
2019-05-13T08:17:32.929Z,21.02
2019-05-13T08:19:07.673Z,21.07
2019-05-13T08:20:42.947Z,20.29
2019-05-13T08:22:17.686Z,20.94
2019-05-13T08:23:52.953Z,20.21
2019-05-13T08:25:27.674Z,19.42
2019-05-13T08:27:02.871Z,20.52
2019-05-13T08:28:52.706Z,20.33
2019-05-13T08:30:17.942Z,22.55
2019-05-13T08:31:51.815Z,23.87
2019-05-13T08:33:28.229Z,22.99
2019-05-13T08:35:08.723Z,23.01
2019-05-13T08:36:42.752Z,23.61
2019-05-13T08:38:16.232Z,24.54
2019-05-13T08:39:52.224Z,22.36
2019-05-13T08:41:27.074Z,23.77
2019-05-13T08:43:02.500Z,26.27
2019-05-13T08:44:37.130Z,27.65
2019-05-13T08:46:12.570Z,29.17
2019-05-13T08:47:47.332Z,30.52
2019-05-13T08:49:22.630Z,30.90
2019-05-13T08:50:57.401Z,31.70
2019-05-13T08:52:32.943Z,31.97
2019-05-13T08:54:07.672Z,31.55
2019-05-13T08:55:43.183Z,31.83
2019-05-13T08:57:17.857Z,31.51
2019-05-13T08:58:53.126Z,30.65
2019-05-13T09:00:49.097Z,28.78
2019-05-13T09:02:24.303Z,30.40
2019-05-13T09:04:02.022Z,29.34
2019-05-13T09:05:36.039Z,27.10
2019-05-13T09:07:12.346Z,28.97
2019-05-13T09:08:47.632Z,29.27
2019-05-13T09:10:22.369Z,30.30
2019-05-13T09:11:57.544Z,30.90
2019-05-13T09:13:33.193Z,29.82
2019-05-13T09:15:08.685Z,29.69
2019-05-13T09:16:44.050Z,30.28
2019-05-13T09:18:22.466Z,28.41
2019-05-13T09:19:55.674Z,29.24
2019-05-13T09:21:31.841Z,29.91
2019-05-13T09:23:06.687Z,29.04
2019-05-13T09:24:42.591Z,29.09
2019-05-13T09:26:17.558Z,27.75
2019-05-13T09:27:53.894Z,27.63
2019-05-13T09:29:28.539Z,27.14
2019-05-13T09:31:03.870Z,28.42
2019-05-13T09:32:38.513Z,29.76
2019-05-13T09:34:13.717Z,28.26
2019-05-13T09:35:50.977Z,28.90
2019-05-13T09:37:25.519Z,28.32
2019-05-13T09:39:02.090Z,28.41
2019-05-13T09:40:38.414Z,28.98
2019-05-13T09:42:13.057Z,28.38
2019-05-13T09:43:48.265Z,28.68
2019-05-13T09:45:22.956Z,28.75
2019-05-13T09:46:59.414Z,29.71
2019-05-13T09:48:34.136Z,28.53
2019-05-13T09:50:25.610Z,29.27
2019-05-13T09:51:45.738Z,29.51
2019-05-13T09:53:22.250Z,29.78
2019-05-13T09:54:57.350Z,28.34
2019-05-13T09:56:32.595Z,28.66
2019-05-13T09:58:07.220Z,28.94
2019-05-13T09:59:42.507Z,26.99
2019-05-13T10:01:17.153Z,25.46
2019-05-13T10:02:52.329Z,26.31
2019-05-13T10:04:27.017Z,27.70
2019-05-13T10:06:02.722Z,27.48
2019-05-13T10:07:37.933Z,27.54
2019-05-13T10:09:13.207Z,25.03
2019-05-13T10:10:47.972Z,25.55
2019-05-13T10:12:24.602Z,26.83
2019-05-13T10:14:01.823Z,27.07
2019-05-13T10:15:36.883Z,26.78
2019-05-13T10:17:13.130Z,28.38
2019-05-13T10:18:48.515Z,28.34
2019-05-13T10:20:43.655Z,28.27
2019-05-13T10:22:18.925Z,28.67
2019-05-13T10:23:58.532Z,25.83
2019-05-13T10:25:30.636Z,26.55
2019-05-13T10:27:05.462Z,27.47
2019-05-13T10:28:42.681Z,26.87
2019-05-13T10:30:17.341Z,27.03
2019-05-13T10:31:53.966Z,27.63
2019-05-13T10:33:31.610Z,29.27
2019-05-13T10:35:06.075Z,26.51
2019-05-13T10:36:42.031Z,26.79
2019-05-13T10:38:17.671Z,25.00
2019-05-13T10:39:52.378Z,24.76
2019-05-13T10:41:27.595Z,25.91
2019-05-13T10:43:02.266Z,25.69
2019-05-13T10:44:37.473Z,26.19
2019-05-13T10:46:12.900Z,26.32
2019-05-13T10:47:48.193Z,27.14
2019-05-13T10:49:22.824Z,27.68
2019-05-13T10:50:58.208Z,26.30
2019-05-13T10:52:32.886Z,26.11
2019-05-13T10:54:08.099Z,25.75
2019-05-13T10:55:44.165Z,26.72
2019-05-13T10:57:19.385Z,25.67
2019-05-13T10:58:54.020Z,26.35
2019-05-13T11:00:47.402Z,27.08
2019-05-13T11:02:22.723Z,27.06
2019-05-13T11:03:58.023Z,26.28
2019-05-13T11:05:33.221Z,26.11
2019-05-13T11:07:08.030Z,26.19
2019-05-13T11:08:43.125Z,25.85
2019-05-13T11:10:22.290Z,25.04
2019-05-13T11:11:57.404Z,26.18
2019-05-13T11:13:50.524Z,26.86
2019-05-13T11:15:09.601Z,26.37
2019-05-13T11:16:44.525Z,26.85
2019-05-13T11:18:21.911Z,27.14
2019-05-13T11:19:56.120Z,25.88
2019-05-13T11:21:32.274Z,26.42
2019-05-13T11:23:07.521Z,26.97
2019-05-13T11:24:43.365Z,27.21
2019-05-13T11:26:18.360Z,26.81
2019-05-13T11:27:58.185Z,26.74
2019-05-13T11:29:32.339Z,27.37
2019-05-13T11:31:06.865Z,25.73
2019-05-13T11:32:42.669Z,25.90
2019-05-13T11:34:17.978Z,26.30
2019-05-13T11:35:52.833Z,26.40
2019-05-13T11:37:27.842Z,25.51
2019-05-13T11:39:03.179Z,25.23
2019-05-13T11:40:38.356Z,25.15
2019-05-13T11:42:13.789Z,25.49
2019-05-13T11:44:10.999Z,25.68
2019-05-13T11:45:26.083Z,25.63
2019-05-13T11:47:03.095Z,25.18
2019-05-13T11:48:38.015Z,25.54
2019-05-13T11:50:13.211Z,25.83
2019-05-13T11:51:51.721Z,25.56
2019-05-13T11:53:32.714Z,26.06
2019-05-13T11:55:02.935Z,27.14
2019-05-13T11:56:48.158Z,25.70
2019-05-13T11:58:15.039Z,25.83
2019-05-13T11:59:52.666Z,25.94
2019-05-13T12:01:26.682Z,25.34
2019-05-13T12:03:04.262Z,25.06
2019-05-13T12:04:38.415Z,24.71
2019-05-13T12:06:14.436Z,24.93
2019-05-13T12:07:49.251Z,24.30
2019-05-13T12:09:24.296Z,24.02
2019-05-13T12:10:59.119Z,24.00
2019-05-13T12:12:34.701Z,24.27
2019-05-13T12:14:34.674Z,24.88
2019-05-13T12:15:49.776Z,25.20
2019-05-13T12:17:22.962Z,24.85
2019-05-13T12:18:57.968Z,25.73
2019-05-13T12:20:32.963Z,24.64
2019-05-13T12:22:09.196Z,24.37
2019-05-13T12:23:43.998Z,23.83
2019-05-13T12:25:22.192Z,23.33
2019-05-13T12:26:55.729Z,24.00
2019-05-13T12:28:30.833Z,25.09
2019-05-13T12:30:05.836Z,25.44
2019-05-13T12:31:41.837Z,25.53
2019-05-13T12:33:16.663Z,23.38
2019-05-13T12:34:52.705Z,23.73
2019-05-13T12:36:27.775Z,23.83
2019-05-13T12:38:02.892Z,24.39
2019-05-13T12:39:37.790Z,25.02
2019-05-13T12:41:13.203Z,26.33
2019-05-13T12:42:48.299Z,26.33
2019-05-13T12:44:23.378Z,27.44
2019-05-13T12:45:58.455Z,27.73
2019-05-13T12:47:33.533Z,28.06
2019-05-13T12:49:08.412Z,28.44
2019-05-13T12:50:43.523Z,28.69
2019-05-13T12:52:18.322Z,28.76
2019-05-13T12:53:53.384Z,28.76
2019-05-13T12:55:28.204Z,29.49
2019-05-13T12:57:03.924Z,29.55
2019-05-13T12:58:38.943Z,28.91
2019-05-13T13:00:14.816Z,26.22
2019-05-13T13:01:51.950Z,26.59
2019-05-13T13:03:26.369Z,26.56
2019-05-13T13:05:10.490Z,27.35
2019-05-13T13:06:41.624Z,27.35
2019-05-13T13:08:29.004Z,28.23
2019-05-13T13:09:53.508Z,27.77
2019-05-13T13:11:28.052Z,27.38
2019-05-13T13:13:03.107Z,26.36
2019-05-13T13:14:39.628Z,26.36
2019-05-13T13:16:14.711Z,25.97
2019-05-13T13:17:53.699Z,26.85
2019-05-13T13:19:26.217Z,27.27
2019-05-13T13:21:06.535Z,27.43
2019-05-13T13:22:37.837Z,27.66
2019-05-13T13:24:12.685Z,28.07
2019-05-13T13:25:53.032Z,28.13
2019-05-13T13:27:57.193Z,27.86
2019-05-13T13:29:02.004Z,27.86
2019-05-13T13:30:36.928Z,28.56
2019-05-13T13:32:13.656Z,28.56
2019-05-13T13:33:48.712Z,29.21
2019-05-13T13:35:23.994Z,28.11
2019-05-13T13:36:58.849Z,28.11
2019-05-13T13:38:33.923Z,27.98
2019-05-13T13:40:09.154Z,27.97
2019-05-13T13:41:44.332Z,28.48
2019-05-13T13:43:23.538Z,28.27
2019-05-13T13:44:55.895Z,28.00
2019-05-13T13:46:38.305Z,28.23
2019-05-13T13:48:12.956Z,28.01
2019-05-13T13:49:45.238Z,27.07
2019-05-13T13:51:25.890Z,26.84
2019-05-13T13:52:56.897Z,27.47
2019-05-13T13:54:33.886Z,27.78
2019-05-13T13:56:08.747Z,28.75
2019-05-13T13:57:45.018Z,29.21
2019-05-13T13:59:24.765Z,29.55
2019-05-13T14:01:10.154Z,29.55
2019-05-13T14:02:36.979Z,29.28
2019-05-13T14:04:16.443Z,29.38
2019-05-13T14:05:47.754Z,29.50
2019-05-13T14:07:31.342Z,29.21
2019-05-13T14:09:01.428Z,29.23
2019-05-13T14:10:37.433Z,29.09
2019-05-13T14:12:12.300Z,27.73
2019-05-13T14:13:47.316Z,27.56
2019-05-13T14:15:22.298Z,28.31
2019-05-13T14:16:57.316Z,28.05
2019-05-13T14:18:32.156Z,28.41
2019-05-13T14:20:07.454Z,28.64
2019-05-13T14:21:42.286Z,28.60
2019-05-13T14:23:17.317Z,28.21
2019-05-13T14:24:52.162Z,28.33
2019-05-13T14:26:27.168Z,28.64
2019-05-13T14:28:02.251Z,28.55
2019-05-13T14:29:41.927Z,28.57
2019-05-13T14:31:14.103Z,28.86
2019-05-13T14:32:51.711Z,28.80
2019-05-13T14:34:25.709Z,28.36
2019-05-13T14:36:01.561Z,28.59
2019-05-13T14:37:36.579Z,29.56
2019-05-13T14:39:12.140Z,27.87
2019-05-13T14:40:47.285Z,28.58
2019-05-13T14:42:22.918Z,28.49
2019-05-13T14:43:58.008Z,28.35
2019-05-13T14:45:33.060Z,27.82
2019-05-13T14:47:07.956Z,27.82
2019-05-13T14:48:43.450Z,28.07
2019-05-13T14:50:21.226Z,28.07
2019-05-13T14:51:56.429Z,28.24
2019-05-13T14:53:32.322Z,28.30
2019-05-13T14:55:07.965Z,28.30
2019-05-13T14:56:42.884Z,27.98
2019-05-13T14:58:18.161Z,28.11
2019-05-13T14:59:52.971Z,27.94
2019-05-13T15:01:27.987Z,28.14
2019-05-13T15:03:03.164Z,28.27
2019-05-13T15:04:38.247Z,28.66
2019-05-13T15:06:13.175Z,28.66
2019-05-13T15:07:48.188Z,28.69
2019-05-13T15:09:23.032Z,28.59
2019-05-13T15:10:58.052Z,28.55
2019-05-13T15:12:32.888Z,28.75
2019-05-13T15:14:07.949Z,28.75
2019-05-13T15:15:42.768Z,29.24
2019-05-13T15:17:17.778Z,29.60
2019-05-13T15:18:52.966Z,29.67
2019-05-13T15:20:28.026Z,29.25
2019-05-13T15:22:03.019Z,29.27
2019-05-13T15:23:38.046Z,29.15
2019-05-13T15:25:12.968Z,29.51
2019-05-13T15:26:48.207Z,29.28
2019-05-13T15:28:23.703Z,29.39
2019-05-13T15:30:14.618Z,29.58
2019-05-13T15:31:36.365Z,29.72
2019-05-13T15:33:11.377Z,30.12
2019-05-13T15:34:46.176Z,30.16
2019-05-13T15:36:22.549Z,30.44
2019-05-13T15:37:57.620Z,30.75
2019-05-13T15:39:32.924Z,31.53
2019-05-13T15:41:07.842Z,31.36
2019-05-13T15:42:42.847Z,31.28
2019-05-13T15:44:17.682Z,31.10
2019-05-13T15:45:52.861Z,31.43
2019-05-13T15:47:27.739Z,30.86
2019-05-13T15:49:02.732Z,31.10
2019-05-13T15:50:37.606Z,31.10
2019-05-13T15:52:12.995Z,31.05
2019-05-13T15:53:47.843Z,31.54
2019-05-13T15:55:22.847Z,31.30
2019-05-13T15:56:57.667Z,31.47
2019-05-13T15:58:39.207Z,32.01
2019-05-13T16:00:12.330Z,32.11
2019-05-13T16:01:52.525Z,31.80
2019-05-13T16:03:27.911Z,31.69
2019-05-13T16:05:04.828Z,31.69
2019-05-13T16:06:41.303Z,31.50
2019-05-13T16:08:15.928Z,31.17
2019-05-13T16:09:52.625Z,31.72
2019-05-13T16:11:27.472Z,31.29
2019-05-13T16:13:02.646Z,31.80
2019-05-13T16:14:37.288Z,32.12
2019-05-13T16:16:12.518Z,32.40
2019-05-13T16:17:47.169Z,32.79
2019-05-13T16:19:22.359Z,32.82
2019-05-13T16:20:57.118Z,32.81
2019-05-13T16:22:32.379Z,32.85
2019-05-13T16:24:07.044Z,32.96
2019-05-13T16:25:42.276Z,33.25
2019-05-13T16:27:16.918Z,33.78
2019-05-13T16:28:52.822Z,33.25
2019-05-13T16:30:27.750Z,33.50
2019-05-13T16:32:03.045Z,33.26
2019-05-13T16:33:37.709Z,34.33
2019-05-13T16:35:13.760Z,34.33
2019-05-13T16:36:48.540Z,34.30
2019-05-13T16:38:23.757Z,34.42
2019-05-13T16:39:58.471Z,34.39
2019-05-13T16:41:33.847Z,34.65
2019-05-13T16:43:48.288Z,34.63
2019-05-13T16:45:23.598Z,34.59
2019-05-13T16:46:58.237Z,35.13
2019-05-13T16:48:33.473Z,34.90
2019-05-13T16:50:08.363Z,35.31
2019-05-13T16:51:43.663Z,35.39
2019-05-13T16:53:18.301Z,35.59
2019-05-13T16:54:53.646Z,35.66
2019-05-13T16:56:32.749Z,35.84
2019-05-13T16:58:05.196Z,35.77
2019-05-13T16:59:41.101Z,35.00
2019-05-13T17:01:16.542Z,33.88
2019-05-13T17:02:51.803Z,33.63
2019-05-13T17:04:27.173Z,33.72
2019-05-13T17:06:02.341Z,33.62
2019-05-13T17:07:37.743Z,34.04
2019-05-13T17:09:12.927Z,34.70
2019-05-13T17:10:48.149Z,35.19
2019-05-13T17:12:22.933Z,35.33
2019-05-13T17:13:58.294Z,36.07
2019-05-13T17:15:32.971Z,36.02
2019-05-13T17:17:08.307Z,36.53
2019-05-13T17:18:42.984Z,36.67
2019-05-13T17:20:18.247Z,36.67
2019-05-13T17:21:53.149Z,36.33
2019-05-13T17:23:28.435Z,36.28
2019-05-13T17:25:03.318Z,35.30
2019-05-13T17:26:41.803Z,35.56
2019-05-13T17:28:16.129Z,35.59
2019-05-13T17:29:51.681Z,35.12
2019-05-13T17:31:26.452Z,35.05
2019-05-13T17:33:02.392Z,34.57
2019-05-13T17:34:38.826Z,33.88
2019-05-13T17:36:14.012Z,34.10
2019-05-13T17:37:51.104Z,34.29
2019-05-13T17:39:25.588Z,35.33
2019-05-13T17:41:02.281Z,34.03
2019-05-13T17:42:37.349Z,34.38
2019-05-13T17:44:12.192Z,33.81
2019-05-13T17:45:47.705Z,33.81
2019-05-13T17:47:22.474Z,34.22
2019-05-13T17:48:57.772Z,34.15
2019-05-13T17:50:32.460Z,33.18
2019-05-13T17:52:07.680Z,33.18
2019-05-13T17:53:42.405Z,33.61
2019-05-13T17:55:17.616Z,33.69
2019-05-13T17:56:52.433Z,33.85
2019-05-13T17:58:27.944Z,34.97
2019-05-13T18:00:02.761Z,34.97
2019-05-13T18:01:38.270Z,34.74
2019-05-13T18:03:13.994Z,34.95
2019-05-13T18:04:49.280Z,35.35
2019-05-13T18:06:23.983Z,35.31
2019-05-13T18:08:01.671Z,35.31
2019-05-13T18:09:35.618Z,34.56
2019-05-13T18:11:11.442Z,34.56
2019-05-13T18:12:47.321Z,35.21
2019-05-13T18:14:22.539Z,35.21
2019-05-13T18:15:57.707Z,35.35
2019-05-13T18:17:32.927Z,35.49
2019-05-13T18:19:07.655Z,36.13
2019-05-13T18:20:43.058Z,36.14
2019-05-13T18:22:17.850Z,36.24
2019-05-13T18:23:53.145Z,36.24
2019-05-13T18:25:28.184Z,36.99
2019-05-13T18:27:03.471Z,36.80
2019-05-13T18:28:38.377Z,36.80
2019-05-13T18:30:13.674Z,37.48
2019-05-13T18:31:48.399Z,37.61
2019-05-13T18:33:23.571Z,37.94
2019-05-13T18:34:58.283Z,38.02
2019-05-13T18:36:33.611Z,38.02
2019-05-13T18:38:08.662Z,38.53
2019-05-13T18:39:44.005Z,38.65
2019-05-13T18:41:18.736Z,39.59
2019-05-13T18:42:56.050Z,39.59
2019-05-13T18:44:31.706Z,38.87
2019-05-13T18:46:14.812Z,38.87
2019-05-13T18:47:51.401Z,39.31
2019-05-13T18:49:26.478Z,39.31
2019-05-13T18:51:01.552Z,39.54
2019-05-13T18:52:36.483Z,39.54
2019-05-13T18:54:12.010Z,39.12
2019-05-13T18:55:47.267Z,39.12
2019-05-13T18:57:22.371Z,39.50
2019-05-13T18:58:57.263Z,39.38
2019-05-13T19:00:32.512Z,40.47
2019-05-13T19:02:07.486Z,40.47
2019-05-13T19:03:42.663Z,40.22
2019-05-13T19:05:17.684Z,39.88
2019-05-13T19:06:52.775Z,40.25
2019-05-13T19:08:27.685Z,39.83
2019-05-13T19:10:02.779Z,40.04
2019-05-13T19:11:39.023Z,39.90
2019-05-13T19:13:14.217Z,39.80
2019-05-13T19:14:51.510Z,39.80
2019-05-13T19:16:26.001Z,39.77
2019-05-13T19:18:00.975Z,40.03
2019-05-13T19:19:36.411Z,39.84
2019-05-13T19:21:11.267Z,39.97
2019-05-13T19:22:46.789Z,40.14
2019-05-13T19:24:21.930Z,40.63
2019-05-13T19:25:57.169Z,40.93
2019-05-13T19:27:32.202Z,41.10
2019-05-13T19:29:33.140Z,41.18
2019-05-13T19:31:07.805Z,41.66
2019-05-13T19:32:43.743Z,42.20
2019-05-13T19:34:18.385Z,42.41
2019-05-13T19:35:53.600Z,42.66
2019-05-13T19:37:28.328Z,42.68
2019-05-13T19:39:04.360Z,43.22
2019-05-13T19:40:42.005Z,43.60
2019-05-13T19:42:17.425Z,43.75
2019-05-13T19:43:52.101Z,43.73
2019-05-13T19:45:27.480Z,44.05
2019-05-13T19:47:02.226Z,44.06
2019-05-13T19:48:37.434Z,44.53
2019-05-13T19:50:12.295Z,44.67
2019-05-13T19:51:47.585Z,44.94
2019-05-13T19:53:22.268Z,45.63
2019-05-13T19:54:57.731Z,45.51
2019-05-13T19:56:32.531Z,45.35
2019-05-13T19:58:07.818Z,45.57
2019-05-13T19:59:42.779Z,45.80
2019-05-13T20:01:18.023Z,45.80
2019-05-13T20:02:52.652Z,46.26
2019-05-13T20:04:28.055Z,46.28
2019-05-13T20:06:02.843Z,46.07
2019-05-13T20:07:38.339Z,46.11
2019-05-13T20:09:13.125Z,46.25
2019-05-13T20:10:48.529Z,46.39
2019-05-13T20:12:23.298Z,46.75
2019-05-13T20:14:01.159Z,46.92
2019-05-13T20:15:35.136Z,47.05
2019-05-13T20:17:20.287Z,47.62
2019-05-13T20:18:55.580Z,47.95
2019-05-13T20:20:31.713Z,47.95
2019-05-13T20:22:06.992Z,47.85
2019-05-13T20:23:41.827Z,48.23
2019-05-13T20:25:16.956Z,48.62
2019-05-13T20:26:52.291Z,48.80
2019-05-13T20:28:28.433Z,49.09
2019-05-13T20:30:03.276Z,49.98
2019-05-13T20:31:38.375Z,49.98
2019-05-13T20:33:13.231Z,50.00
2019-05-13T20:34:48.256Z,50.31
2019-05-13T20:36:23.247Z,50.75
2019-05-13T20:37:58.428Z,50.99
2019-05-13T20:39:33.265Z,51.29
2019-05-13T20:41:08.294Z,51.27